sensor_id;sensor_type;location;lat;lon;timestamp;P1;durP1;ratioP1;P2;durP2;ratioP2
51780;SDS011;37844;57.126;24.288;2022-12-11T00:01:13;11.85;;;7.82;;
51780;SDS011;37844;57.126;24.288;2022-12-11T00:03:43;16.73;;;7.40;;
51780;SDS011;37844;57.126;24.288;2022-12-11T00:06:09;14.00;;;8.43;;
51780;SDS011;37844;57.126;24.288;2022-12-11T00:08:37;11.85;;;7.93;;
51780;SDS011;37844;57.126;24.288;2022-12-11T00:11:03;14.85;;;8.50;;
51780;SDS011;37844;57.126;24.288;2022-12-11T00:13:32;11.20;;;7.78;;
51780;SDS011;37844;57.126;24.288;2022-12-11T00:15:57;16.27;;;8.32;;
51780;SDS011;37844;57.126;24.288;2022-12-11T00:18:23;9.40;;;6.25;;
51780;SDS011;37844;57.126;24.288;2022-12-11T00:20:48;9.85;;;6.50;;
51780;SDS011;37844;57.126;24.288;2022-12-11T00:23:14;10.52;;;6.40;;
51780;SDS011;37844;57.126;24.288;2022-12-11T00:25:40;12.52;;;6.72;;
51780;SDS011;37844;57.126;24.288;2022-12-11T00:28:08;11.32;;;6.07;;
51780;SDS011;37844;57.126;24.288;2022-12-11T00:30:37;10.05;;;6.78;;
51780;SDS011;37844;57.126;24.288;2022-12-11T00:33:03;9.63;;;6.18;;
51780;SDS011;37844;57.126;24.288;2022-12-11T00:35:29;11.63;;;6.38;;
51780;SDS011;37844;57.126;24.288;2022-12-11T00:38:01;10.82;;;6.60;;
51780;SDS011;37844;57.126;24.288;2022-12-11T00:40:26;10.95;;;6.45;;
51780;SDS011;37844;57.126;24.288;2022-12-11T00:42:51;12.80;;;6.55;;
51780;SDS011;37844;57.126;24.288;2022-12-11T00:45:17;9.68;;;6.40;;
51780;SDS011;37844;57.126;24.288;2022-12-11T00:47:43;8.07;;;4.97;;
51780;SDS011;37844;57.126;24.288;2022-12-11T00:50:08;8.40;;;6.13;;
51780;SDS011;37844;57.126;24.288;2022-12-11T00:52:33;12.48;;;6.03;;
51780;SDS011;37844;57.126;24.288;2022-12-11T00:54:59;12.30;;;7.18;;
51780;SDS011;37844;57.126;24.288;2022-12-11T00:57:24;8.65;;;5.60;;
51780;SDS011;37844;57.126;24.288;2022-12-11T00:59:50;10.27;;;6.22;;
51780;SDS011;37844;57.126;24.288;2022-12-11T01:02:15;10.38;;;6.65;;
51780;SDS011;37844;57.126;24.288;2022-12-11T01:04:41;8.88;;;6.07;;
51780;SDS011;37844;57.126;24.288;2022-12-11T01:07:06;12.00;;;7.45;;
51780;SDS011;37844;57.126;24.288;2022-12-11T01:09:32;11.10;;;5.95;;
51780;SDS011;37844;57.126;24.288;2022-12-11T01:14:48;9.55;;;6.13;;
51780;SDS011;37844;57.126;24.288;2022-12-11T01:17:13;8.23;;;6.05;;
51780;SDS011;37844;57.126;24.288;2022-12-11T01:19:39;9.27;;;6.00;;
51780;SDS011;37844;57.126;24.288;2022-12-11T01:22:11;9.32;;;5.68;;
51780;SDS011;37844;57.126;24.288;2022-12-11T01:24:36;11.23;;;6.65;;
51780;SDS011;37844;57.126;24.288;2022-12-11T01:27:02;8.57;;;5.78;;
51780;SDS011;37844;57.126;24.288;2022-12-11T01:29:28;11.77;;;5.72;;
51780;SDS011;37844;57.126;24.288;2022-12-11T01:31:54;10.23;;;5.85;;
51780;SDS011;37844;57.126;24.288;2022-12-11T01:34:20;9.05;;;5.68;;
51780;SDS011;37844;57.126;24.288;2022-12-11T01:36:45;12.10;;;6.43;;
51780;SDS011;37844;57.126;24.288;2022-12-11T01:39:11;12.82;;;6.28;;
51780;SDS011;37844;57.126;24.288;2022-12-11T01:41:36;9.88;;;6.55;;
51780;SDS011;37844;57.126;24.288;2022-12-11T01:46:31;15.20;;;8.15;;
51780;SDS011;37844;57.126;24.288;2022-12-11T01:48:59;10.85;;;6.65;;
51780;SDS011;37844;57.126;24.288;2022-12-11T01:51:26;11.02;;;6.75;;
51780;SDS011;37844;57.126;24.288;2022-12-11T01:53:59;10.63;;;6.32;;
51780;SDS011;37844;57.126;24.288;2022-12-11T01:56:30;10.75;;;7.15;;
51780;SDS011;37844;57.126;24.288;2022-12-11T01:58:59;11.15;;;6.95;;
51780;SDS011;37844;57.126;24.288;2022-12-11T02:01:47;10.27;;;7.10;;
51780;SDS011;37844;57.126;24.288;2022-12-11T02:04:19;13.07;;;7.50;;
51780;SDS011;37844;57.126;24.288;2022-12-11T02:06:46;13.60;;;7.95;;
51780;SDS011;37844;57.126;24.288;2022-12-11T02:09:15;13.43;;;7.45;;
51780;SDS011;37844;57.126;24.288;2022-12-11T02:11:51;14.50;;;8.68;;
51780;SDS011;37844;57.126;24.288;2022-12-11T02:14:55;13.20;;;7.93;;
51780;SDS011;37844;57.126;24.288;2022-12-11T02:17:12;16.90;;;9.70;;
51780;SDS011;37844;57.126;24.288;2022-12-11T02:20:02;12.82;;;8.73;;
51780;SDS011;37844;57.126;24.288;2022-12-11T02:25:29;13.10;;;9.15;;
51780;SDS011;37844;57.126;24.288;2022-12-11T02:30:29;15.63;;;9.05;;
51780;SDS011;37844;57.126;24.288;2022-12-11T02:32:57;11.70;;;7.85;;
51780;SDS011;37844;57.126;24.288;2022-12-11T02:35:32;12.27;;;7.50;;
51780;SDS011;37844;57.126;24.288;2022-12-11T02:38:16;11.15;;;7.97;;
51780;SDS011;37844;57.126;24.288;2022-12-11T02:40:45;13.02;;;8.05;;
51780;SDS011;37844;57.126;24.288;2022-12-11T02:43:14;11.30;;;7.68;;
51780;SDS011;37844;57.126;24.288;2022-12-11T02:45:41;13.45;;;8.57;;
51780;SDS011;37844;57.126;24.288;2022-12-11T02:48:10;14.35;;;8.27;;
51780;SDS011;37844;57.126;24.288;2022-12-11T02:50:38;12.27;;;7.57;;
51780;SDS011;37844;57.126;24.288;2022-12-11T02:53:09;10.77;;;7.40;;
51780;SDS011;37844;57.126;24.288;2022-12-11T02:55:37;11.10;;;8.15;;
51780;SDS011;37844;57.126;24.288;2022-12-11T03:00:52;11.75;;;7.65;;
51780;SDS011;37844;57.126;24.288;2022-12-11T03:03:17;13.20;;;7.68;;
51780;SDS011;37844;57.126;24.288;2022-12-11T03:05:43;12.23;;;7.65;;
51780;SDS011;37844;57.126;24.288;2022-12-11T03:08:10;13.65;;;7.40;;
51780;SDS011;37844;57.126;24.288;2022-12-11T03:10:36;12.50;;;7.43;;
51780;SDS011;37844;57.126;24.288;2022-12-11T03:13:02;12.55;;;8.13;;
51780;SDS011;37844;57.126;24.288;2022-12-11T03:20:51;9.57;;;6.03;;
51780;SDS011;37844;57.126;24.288;2022-12-11T03:23:28;10.75;;;7.65;;
51780;SDS011;37844;57.126;24.288;2022-12-11T03:25:56;12.80;;;6.38;;
51780;SDS011;37844;57.126;24.288;2022-12-11T03:28:28;10.88;;;6.60;;
51780;SDS011;37844;57.126;24.288;2022-12-11T03:31:08;9.18;;;5.53;;
51780;SDS011;37844;57.126;24.288;2022-12-11T03:33:42;8.52;;;5.47;;
51780;SDS011;37844;57.126;24.288;2022-12-11T03:36:13;12.93;;;7.82;;
51780;SDS011;37844;57.126;24.288;2022-12-11T03:38:49;12.38;;;8.10;;
51780;SDS011;37844;57.126;24.288;2022-12-11T03:41:19;11.02;;;6.47;;
51780;SDS011;37844;57.126;24.288;2022-12-11T03:43:48;10.65;;;7.00;;
51780;SDS011;37844;57.126;24.288;2022-12-11T03:46:17;13.25;;;8.38;;
51780;SDS011;37844;57.126;24.288;2022-12-11T03:48:45;10.88;;;6.97;;
51780;SDS011;37844;57.126;24.288;2022-12-11T03:51:12;13.23;;;7.18;;
51780;SDS011;37844;57.126;24.288;2022-12-11T03:53:40;14.73;;;7.85;;
51780;SDS011;37844;57.126;24.288;2022-12-11T03:56:08;10.73;;;6.28;;
51780;SDS011;37844;57.126;24.288;2022-12-11T03:58:36;11.95;;;7.28;;
51780;SDS011;37844;57.126;24.288;2022-12-11T04:01:02;9.32;;;6.43;;
51780;SDS011;37844;57.126;24.288;2022-12-11T04:03:28;11.98;;;6.57;;
51780;SDS011;37844;57.126;24.288;2022-12-11T04:05:54;8.52;;;6.15;;
51780;SDS011;37844;57.126;24.288;2022-12-11T04:08:20;9.77;;;6.32;;
51780;SDS011;37844;57.126;24.288;2022-12-11T04:10:47;10.85;;;6.70;;
51780;SDS011;37844;57.126;24.288;2022-12-11T04:13:33;12.23;;;7.70;;
51780;SDS011;37844;57.126;24.288;2022-12-11T04:15:59;11.63;;;6.32;;
51780;SDS011;37844;57.126;24.288;2022-12-11T04:18:24;12.52;;;7.65;;
51780;SDS011;37844;57.126;24.288;2022-12-11T04:21:08;10.50;;;7.00;;
51780;SDS011;37844;57.126;24.288;2022-12-11T04:23:52;9.90;;;7.10;;
51780;SDS011;37844;57.126;24.288;2022-12-11T04:26:36;12.10;;;7.07;;
51780;SDS011;37844;57.126;24.288;2022-12-11T04:29:02;14.95;;;7.78;;
51780;SDS011;37844;57.126;24.288;2022-12-11T04:31:27;9.35;;;6.68;;
51780;SDS011;37844;57.126;24.288;2022-12-11T04:33:54;11.73;;;6.80;;
51780;SDS011;37844;57.126;24.288;2022-12-11T04:36:19;11.70;;;6.93;;
51780;SDS011;37844;57.126;24.288;2022-12-11T04:38:44;11.50;;;6.65;;
51780;SDS011;37844;57.126;24.288;2022-12-11T04:41:11;12.52;;;6.53;;
51780;SDS011;37844;57.126;24.288;2022-12-11T04:43:38;12.73;;;7.68;;
51780;SDS011;37844;57.126;24.288;2022-12-11T04:46:06;11.60;;;5.82;;
51780;SDS011;37844;57.126;24.288;2022-12-11T04:48:34;9.65;;;6.38;;
51780;SDS011;37844;57.126;24.288;2022-12-11T04:51:00;11.60;;;7.03;;
51780;SDS011;37844;57.126;24.288;2022-12-11T04:53:27;10.70;;;7.60;;
51780;SDS011;37844;57.126;24.288;2022-12-11T04:55:53;10.48;;;6.57;;
51780;SDS011;37844;57.126;24.288;2022-12-11T04:58:19;11.20;;;7.07;;
51780;SDS011;37844;57.126;24.288;2022-12-11T05:00:45;10.73;;;6.75;;
51780;SDS011;37844;57.126;24.288;2022-12-11T05:03:11;11.98;;;8.07;;
51780;SDS011;37844;57.126;24.288;2022-12-11T05:05:37;9.52;;;6.47;;
51780;SDS011;37844;57.126;24.288;2022-12-11T05:08:02;12.82;;;7.18;;
51780;SDS011;37844;57.126;24.288;2022-12-11T05:10:28;11.93;;;7.40;;
51780;SDS011;37844;57.126;24.288;2022-12-11T05:12:54;10.15;;;6.55;;
51780;SDS011;37844;57.126;24.288;2022-12-11T05:15:19;13.65;;;8.73;;
51780;SDS011;37844;57.126;24.288;2022-12-11T05:17:45;14.25;;;8.27;;
51780;SDS011;37844;57.126;24.288;2022-12-11T05:20:10;14.85;;;8.40;;
51780;SDS011;37844;57.126;24.288;2022-12-11T05:22:36;11.35;;;7.78;;
51780;SDS011;37844;57.126;24.288;2022-12-11T05:25:02;12.25;;;7.30;;
51780;SDS011;37844;57.126;24.288;2022-12-11T05:27:28;14.35;;;7.97;;
51780;SDS011;37844;57.126;24.288;2022-12-11T05:29:53;12.40;;;8.95;;
51780;SDS011;37844;57.126;24.288;2022-12-11T05:32:19;12.55;;;8.65;;
51780;SDS011;37844;57.126;24.288;2022-12-11T05:34:45;15.38;;;8.88;;
51780;SDS011;37844;57.126;24.288;2022-12-11T05:37:10;12.38;;;8.18;;
51780;SDS011;37844;57.126;24.288;2022-12-11T05:39:36;18.70;;;8.10;;
51780;SDS011;37844;57.126;24.288;2022-12-11T05:42:02;16.05;;;8.77;;
51780;SDS011;37844;57.126;24.288;2022-12-11T05:44:27;23.75;;;11.85;;
51780;SDS011;37844;57.126;24.288;2022-12-11T05:46:53;14.70;;;7.75;;
51780;SDS011;37844;57.126;24.288;2022-12-11T05:49:18;14.88;;;8.55;;
51780;SDS011;37844;57.126;24.288;2022-12-11T05:51:45;14.52;;;9.43;;
51780;SDS011;37844;57.126;24.288;2022-12-11T05:54:11;17.73;;;9.02;;
51780;SDS011;37844;57.126;24.288;2022-12-11T05:56:36;14.02;;;8.63;;
51780;SDS011;37844;57.126;24.288;2022-12-11T05:59:03;11.63;;;7.75;;
51780;SDS011;37844;57.126;24.288;2022-12-11T06:01:34;12.95;;;7.25;;
51780;SDS011;37844;57.126;24.288;2022-12-11T06:04:02;12.68;;;7.72;;
51780;SDS011;37844;57.126;24.288;2022-12-11T06:06:29;12.88;;;8.38;;
51780;SDS011;37844;57.126;24.288;2022-12-11T06:08:56;15.55;;;9.15;;
51780;SDS011;37844;57.126;24.288;2022-12-11T06:11:23;14.57;;;8.80;;
51780;SDS011;37844;57.126;24.288;2022-12-11T06:13:50;12.32;;;7.90;;
51780;SDS011;37844;57.126;24.288;2022-12-11T06:16:16;13.85;;;8.10;;
51780;SDS011;37844;57.126;24.288;2022-12-11T06:18:43;11.48;;;7.68;;
51780;SDS011;37844;57.126;24.288;2022-12-11T06:21:13;12.00;;;8.57;;
51780;SDS011;37844;57.126;24.288;2022-12-11T06:23:39;13.48;;;9.27;;
51780;SDS011;37844;57.126;24.288;2022-12-11T06:26:05;14.88;;;8.88;;
51780;SDS011;37844;57.126;24.288;2022-12-11T06:28:32;11.13;;;7.72;;
51780;SDS011;37844;57.126;24.288;2022-12-11T06:30:58;12.73;;;8.98;;
51780;SDS011;37844;57.126;24.288;2022-12-11T06:33:24;18.02;;;12.50;;
51780;SDS011;37844;57.126;24.288;2022-12-11T06:35:50;10.82;;;7.57;;
51780;SDS011;37844;57.126;24.288;2022-12-11T06:38:16;15.02;;;8.07;;
51780;SDS011;37844;57.126;24.288;2022-12-11T06:40:42;11.60;;;7.20;;
51780;SDS011;37844;57.126;24.288;2022-12-11T06:43:07;14.00;;;9.23;;
51780;SDS011;37844;57.126;24.288;2022-12-11T06:45:33;15.10;;;8.60;;
51780;SDS011;37844;57.126;24.288;2022-12-11T06:47:58;14.52;;;8.15;;
51780;SDS011;37844;57.126;24.288;2022-12-11T06:50:24;12.40;;;7.70;;
51780;SDS011;37844;57.126;24.288;2022-12-11T06:52:50;13.13;;;9.38;;
51780;SDS011;37844;57.126;24.288;2022-12-11T06:55:16;14.23;;;7.72;;
51780;SDS011;37844;57.126;24.288;2022-12-11T06:57:41;11.52;;;7.53;;
51780;SDS011;37844;57.126;24.288;2022-12-11T07:00:07;13.55;;;9.45;;
51780;SDS011;37844;57.126;24.288;2022-12-11T07:02:33;15.68;;;10.25;;
51780;SDS011;37844;57.126;24.288;2022-12-11T07:04:59;15.60;;;10.43;;
51780;SDS011;37844;57.126;24.288;2022-12-11T07:07:24;15.27;;;9.15;;
51780;SDS011;37844;57.126;24.288;2022-12-11T07:09:50;13.90;;;8.55;;
51780;SDS011;37844;57.126;24.288;2022-12-11T07:12:16;15.45;;;7.68;;
51780;SDS011;37844;57.126;24.288;2022-12-11T07:14:41;15.18;;;9.32;;
51780;SDS011;37844;57.126;24.288;2022-12-11T07:17:07;21.23;;;12.05;;
51780;SDS011;37844;57.126;24.288;2022-12-11T07:19:32;21.95;;;10.77;;
51780;SDS011;37844;57.126;24.288;2022-12-11T07:21:58;15.38;;;9.32;;
51780;SDS011;37844;57.126;24.288;2022-12-11T07:24:23;17.80;;;10.50;;
51780;SDS011;37844;57.126;24.288;2022-12-11T07:26:49;15.63;;;10.13;;
51780;SDS011;37844;57.126;24.288;2022-12-11T07:29:14;31.33;;;13.10;;
51780;SDS011;37844;57.126;24.288;2022-12-11T07:31:40;20.42;;;12.27;;
51780;SDS011;37844;57.126;24.288;2022-12-11T07:34:06;23.88;;;12.23;;
51780;SDS011;37844;57.126;24.288;2022-12-11T07:36:32;21.92;;;11.27;;
51780;SDS011;37844;57.126;24.288;2022-12-11T07:38:59;17.50;;;11.27;;
51780;SDS011;37844;57.126;24.288;2022-12-11T07:41:25;26.92;;;12.93;;
51780;SDS011;37844;57.126;24.288;2022-12-11T07:43:52;39.78;;;16.50;;
51780;SDS011;37844;57.126;24.288;2022-12-11T07:46:19;22.33;;;11.23;;
51780;SDS011;37844;57.126;24.288;2022-12-11T07:48:47;26.60;;;14.80;;
51780;SDS011;37844;57.126;24.288;2022-12-11T07:53:40;15.57;;;9.45;;
51780;SDS011;37844;57.126;24.288;2022-12-11T07:56:06;20.25;;;11.10;;
51780;SDS011;37844;57.126;24.288;2022-12-11T07:58:32;19.25;;;12.20;;
51780;SDS011;37844;57.126;24.288;2022-12-11T08:00:58;20.90;;;12.45;;
51780;SDS011;37844;57.126;24.288;2022-12-11T08:03:23;37.70;;;18.95;;
51780;SDS011;37844;57.126;24.288;2022-12-11T08:05:49;26.17;;;11.07;;
51780;SDS011;37844;57.126;24.288;2022-12-11T08:08:16;18.90;;;10.82;;
51780;SDS011;37844;57.126;24.288;2022-12-11T08:10:42;16.77;;;10.43;;
51780;SDS011;37844;57.126;24.288;2022-12-11T08:13:08;18.40;;;10.30;;
51780;SDS011;37844;57.126;24.288;2022-12-11T08:15:34;21.30;;;10.90;;
51780;SDS011;37844;57.126;24.288;2022-12-11T08:17:59;19.45;;;10.30;;
51780;SDS011;37844;57.126;24.288;2022-12-11T08:20:25;18.42;;;10.70;;
51780;SDS011;37844;57.126;24.288;2022-12-11T08:22:50;16.63;;;10.32;;
51780;SDS011;37844;57.126;24.288;2022-12-11T08:25:16;23.75;;;11.57;;
51780;SDS011;37844;57.126;24.288;2022-12-11T08:27:41;20.13;;;11.90;;
51780;SDS011;37844;57.126;24.288;2022-12-11T08:30:07;39.10;;;16.10;;
51780;SDS011;37844;57.126;24.288;2022-12-11T08:32:33;13.35;;;7.95;;
51780;SDS011;37844;57.126;24.288;2022-12-11T08:34:59;16.20;;;11.13;;
51780;SDS011;37844;57.126;24.288;2022-12-11T08:37:25;27.00;;;13.68;;
51780;SDS011;37844;57.126;24.288;2022-12-11T08:39:51;20.27;;;12.48;;
51780;SDS011;37844;57.126;24.288;2022-12-11T08:42:16;19.83;;;11.50;;
51780;SDS011;37844;57.126;24.288;2022-12-11T08:44:42;31.15;;;13.35;;
51780;SDS011;37844;57.126;24.288;2022-12-11T08:47:07;24.58;;;13.52;;
51780;SDS011;37844;57.126;24.288;2022-12-11T08:49:36;21.08;;;12.52;;
51780;SDS011;37844;57.126;24.288;2022-12-11T08:52:02;35.45;;;15.25;;
51780;SDS011;37844;57.126;24.288;2022-12-11T08:54:29;29.73;;;13.80;;
51780;SDS011;37844;57.126;24.288;2022-12-11T08:56:55;31.58;;;12.65;;
51780;SDS011;37844;57.126;24.288;2022-12-11T08:59:20;21.42;;;12.50;;
51780;SDS011;37844;57.126;24.288;2022-12-11T09:01:46;25.67;;;11.55;;
51780;SDS011;37844;57.126;24.288;2022-12-11T09:04:11;20.02;;;11.35;;
51780;SDS011;37844;57.126;24.288;2022-12-11T09:06:37;20.45;;;11.98;;
51780;SDS011;37844;57.126;24.288;2022-12-11T09:09:03;16.02;;;10.40;;
51780;SDS011;37844;57.126;24.288;2022-12-11T09:11:30;18.50;;;10.85;;
51780;SDS011;37844;57.126;24.288;2022-12-11T09:13:58;20.88;;;11.57;;
51780;SDS011;37844;57.126;24.288;2022-12-11T09:16:25;21.08;;;14.18;;
51780;SDS011;37844;57.126;24.288;2022-12-11T09:18:51;16.33;;;9.63;;
51780;SDS011;37844;57.126;24.288;2022-12-11T09:21:20;20.92;;;11.50;;
51780;SDS011;37844;57.126;24.288;2022-12-11T09:23:47;20.48;;;11.98;;
51780;SDS011;37844;57.126;24.288;2022-12-11T09:26:14;18.80;;;11.25;;
51780;SDS011;37844;57.126;24.288;2022-12-11T09:28:41;18.08;;;11.95;;
51780;SDS011;37844;57.126;24.288;2022-12-11T09:31:12;27.45;;;12.68;;
51780;SDS011;37844;57.126;24.288;2022-12-11T09:33:37;26.75;;;13.07;;
51780;SDS011;37844;57.126;24.288;2022-12-11T09:36:03;27.77;;;14.88;;
51780;SDS011;37844;57.126;24.288;2022-12-11T09:38:31;29.63;;;15.80;;
51780;SDS011;37844;57.126;24.288;2022-12-11T09:40:58;31.10;;;15.70;;
51780;SDS011;37844;57.126;24.288;2022-12-11T09:43:35;27.45;;;13.63;;
51780;SDS011;37844;57.126;24.288;2022-12-11T09:48:34;26.23;;;13.70;;
51780;SDS011;37844;57.126;24.288;2022-12-11T09:51:02;26.08;;;12.20;;
51780;SDS011;37844;57.126;24.288;2022-12-11T09:53:37;26.20;;;13.15;;
51780;SDS011;37844;57.126;24.288;2022-12-11T10:04:11;23.63;;;12.20;;
51780;SDS011;37844;57.126;24.288;2022-12-11T10:06:53;27.10;;;12.75;;
51780;SDS011;37844;57.126;24.288;2022-12-11T10:09:31;31.63;;;15.15;;
51780;SDS011;37844;57.126;24.288;2022-12-11T10:12:29;30.52;;;13.63;;
51780;SDS011;37844;57.126;24.288;2022-12-11T10:18:08;28.42;;;13.75;;
51780;SDS011;37844;57.126;24.288;2022-12-11T10:20:36;23.75;;;12.73;;
51780;SDS011;37844;57.126;24.288;2022-12-11T10:23:08;24.40;;;13.50;;
51780;SDS011;37844;57.126;24.288;2022-12-11T10:25:42;18.00;;;11.45;;
51780;SDS011;37844;57.126;24.288;2022-12-11T10:28:16;16.70;;;9.52;;
51780;SDS011;37844;57.126;24.288;2022-12-11T10:30:48;29.50;;;12.57;;
51780;SDS011;37844;57.126;24.288;2022-12-11T10:33:21;25.85;;;12.95;;
51780;SDS011;37844;57.126;24.288;2022-12-11T10:36:10;21.90;;;12.40;;
51780;SDS011;37844;57.126;24.288;2022-12-11T10:38:43;20.30;;;12.27;;
51780;SDS011;37844;57.126;24.288;2022-12-11T10:41:16;22.65;;;13.23;;
51780;SDS011;37844;57.126;24.288;2022-12-11T10:43:46;23.30;;;12.82;;
51780;SDS011;37844;57.126;24.288;2022-12-11T10:46:15;24.67;;;13.88;;
51780;SDS011;37844;57.126;24.288;2022-12-11T10:48:52;24.67;;;11.73;;
51780;SDS011;37844;57.126;24.288;2022-12-11T10:51:17;21.08;;;12.23;;
51780;SDS011;37844;57.126;24.288;2022-12-11T10:53:52;24.38;;;13.70;;
51780;SDS011;37844;57.126;24.288;2022-12-11T10:56:23;17.55;;;11.05;;
51780;SDS011;37844;57.126;24.288;2022-12-11T10:58:51;17.15;;;10.40;;
51780;SDS011;37844;57.126;24.288;2022-12-11T11:01:21;19.17;;;10.70;;
51780;SDS011;37844;57.126;24.288;2022-12-11T11:06:43;18.02;;;9.40;;
51780;SDS011;37844;57.126;24.288;2022-12-11T11:09:26;15.63;;;9.45;;
51780;SDS011;37844;57.126;24.288;2022-12-11T11:11:53;16.67;;;9.40;;
51780;SDS011;37844;57.126;24.288;2022-12-11T11:14:19;15.30;;;9.90;;
51780;SDS011;37844;57.126;24.288;2022-12-11T11:16:47;20.75;;;11.25;;
51780;SDS011;37844;57.126;24.288;2022-12-11T11:21:49;31.48;;;17.73;;
51780;SDS011;37844;57.126;24.288;2022-12-11T11:24:23;29.00;;;15.88;;
51780;SDS011;37844;57.126;24.288;2022-12-11T11:26:54;28.58;;;15.93;;
51780;SDS011;37844;57.126;24.288;2022-12-11T11:29:22;24.33;;;15.25;;
51780;SDS011;37844;57.126;24.288;2022-12-11T11:31:52;27.42;;;15.05;;
51780;SDS011;37844;57.126;24.288;2022-12-11T11:34:18;42.72;;;18.88;;
51780;SDS011;37844;57.126;24.288;2022-12-11T11:36:54;28.88;;;14.77;;
51780;SDS011;37844;57.126;24.288;2022-12-11T11:42:01;17.52;;;11.20;;
51780;SDS011;37844;57.126;24.288;2022-12-11T11:44:36;21.33;;;11.50;;
51780;SDS011;37844;57.126;24.288;2022-12-11T11:50:18;15.32;;;9.43;;
51780;SDS011;37844;57.126;24.288;2022-12-11T11:55:33;18.50;;;10.38;;
51780;SDS011;37844;57.126;24.288;2022-12-11T11:58:08;17.95;;;11.50;;
51780;SDS011;37844;57.126;24.288;2022-12-11T12:00:39;16.42;;;10.50;;
51780;SDS011;37844;57.126;24.288;2022-12-11T12:03:13;24.92;;;12.32;;
51780;SDS011;37844;57.126;24.288;2022-12-11T12:08:41;224.35;;;124.15;;
51780;SDS011;37844;57.126;24.288;2022-12-11T12:11:34;67.95;;;57.53;;
51780;SDS011;37844;57.126;24.288;2022-12-11T12:14:15;36.00;;;25.55;;
51780;SDS011;37844;57.126;24.288;2022-12-11T12:41:32;38.57;;;29.47;;
51780;SDS011;37844;57.126;24.288;2022-12-11T12:44:06;37.53;;;27.50;;
51780;SDS011;37844;57.126;24.288;2022-12-11T12:49:11;37.63;;;27.00;;
51780;SDS011;37844;57.126;24.288;2022-12-11T12:51:41;31.27;;;21.35;;
51780;SDS011;37844;57.126;24.288;2022-12-11T12:54:08;49.88;;;38.25;;
51780;SDS011;37844;57.126;24.288;2022-12-11T12:56:39;78.30;;;58.80;;
51780;SDS011;37844;57.126;24.288;2022-12-11T12:59:17;26.25;;;16.27;;
51780;SDS011;37844;57.126;24.288;2022-12-11T13:01:52;20.85;;;13.90;;
51780;SDS011;37844;57.126;24.288;2022-12-11T13:04:28;30.55;;;19.85;;
51780;SDS011;37844;57.126;24.288;2022-12-11T13:06:55;70.55;;;50.00;;
51780;SDS011;37844;57.126;24.288;2022-12-11T13:09:22;21.95;;;13.57;;
51780;SDS011;37844;57.126;24.288;2022-12-11T13:11:49;27.80;;;17.33;;
51780;SDS011;37844;57.126;24.288;2022-12-11T13:14:30;30.88;;;20.63;;
51780;SDS011;37844;57.126;24.288;2022-12-11T13:19:44;70.85;;;50.38;;
51780;SDS011;37844;57.126;24.288;2022-12-11T13:24:46;33.30;;;25.52;;
51780;SDS011;37844;57.126;24.288;2022-12-11T13:27:35;49.15;;;36.83;;
51780;SDS011;37844;57.126;24.288;2022-12-11T13:35:42;31.08;;;15.95;;
51780;SDS011;37844;57.126;24.288;2022-12-11T13:38:20;49.58;;;38.00;;
51780;SDS011;37844;57.126;24.288;2022-12-11T13:40:48;56.80;;;42.97;;
51780;SDS011;37844;57.126;24.288;2022-12-11T13:43:24;64.20;;;55.92;;
51780;SDS011;37844;57.126;24.288;2022-12-11T13:46:02;63.10;;;43.08;;
51780;SDS011;37844;57.126;24.288;2022-12-11T13:49:05;78.65;;;62.47;;
51780;SDS011;37844;57.126;24.288;2022-12-11T13:51:25;34.00;;;27.23;;
51780;SDS011;37844;57.126;24.288;2022-12-11T13:56:28;40.08;;;31.25;;
51780;SDS011;37844;57.126;24.288;2022-12-11T13:58:54;44.95;;;32.85;;
51780;SDS011;37844;57.126;24.288;2022-12-11T14:01:22;26.25;;;17.08;;
51780;SDS011;37844;57.126;24.288;2022-12-11T14:03:56;36.97;;;25.60;;
51780;SDS011;37844;57.126;24.288;2022-12-11T14:06:25;47.42;;;36.33;;
51780;SDS011;37844;57.126;24.288;2022-12-11T14:08:53;25.92;;;17.17;;
51780;SDS011;37844;57.126;24.288;2022-12-11T14:11:21;28.30;;;19.20;;
51780;SDS011;37844;57.126;24.288;2022-12-11T14:13:52;20.65;;;12.35;;
51780;SDS011;37844;57.126;24.288;2022-12-11T14:16:20;25.15;;;13.65;;
51780;SDS011;37844;57.126;24.288;2022-12-11T14:18:48;19.25;;;12.38;;
51780;SDS011;37844;57.126;24.288;2022-12-11T14:21:17;21.10;;;12.75;;
51780;SDS011;37844;57.126;24.288;2022-12-11T14:23:53;41.40;;;30.88;;
51780;SDS011;37844;57.126;24.288;2022-12-11T14:26:24;44.08;;;29.70;;
51780;SDS011;37844;57.126;24.288;2022-12-11T14:28:56;42.28;;;28.85;;
51780;SDS011;37844;57.126;24.288;2022-12-11T14:33:52;31.67;;;20.50;;
51780;SDS011;37844;57.126;24.288;2022-12-11T14:36:20;28.52;;;17.48;;
51780;SDS011;37844;57.126;24.288;2022-12-11T14:38:48;37.70;;;18.90;;
51780;SDS011;37844;57.126;24.288;2022-12-11T14:44:14;58.92;;;43.78;;
51780;SDS011;37844;57.126;24.288;2022-12-11T14:46:45;35.35;;;24.02;;
51780;SDS011;37844;57.126;24.288;2022-12-11T14:51:43;30.50;;;22.42;;
51780;SDS011;37844;57.126;24.288;2022-12-11T14:54:13;41.50;;;33.22;;
51780;SDS011;37844;57.126;24.288;2022-12-11T14:56:59;33.65;;;21.73;;
51780;SDS011;37844;57.126;24.288;2022-12-11T14:59:27;41.33;;;31.08;;
51780;SDS011;37844;57.126;24.288;2022-12-11T15:01:59;36.83;;;30.02;;
51780;SDS011;37844;57.126;24.288;2022-12-11T15:04:30;37.70;;;25.63;;
51780;SDS011;37844;57.126;24.288;2022-12-11T15:06:57;24.35;;;15.32;;
51780;SDS011;37844;57.126;24.288;2022-12-11T15:09:27;125.35;;;88.63;;
51780;SDS011;37844;57.126;24.288;2022-12-11T15:11:54;152.80;;;102.88;;
51780;SDS011;37844;57.126;24.288;2022-12-11T15:14:23;85.07;;;54.33;;
51780;SDS011;37844;57.126;24.288;2022-12-11T15:16:50;41.05;;;27.88;;
51780;SDS011;37844;57.126;24.288;2022-12-11T15:19:24;32.40;;;23.75;;
51780;SDS011;37844;57.126;24.288;2022-12-11T15:21:54;37.05;;;26.75;;
51780;SDS011;37844;57.126;24.288;2022-12-11T15:24:29;34.70;;;22.15;;
51780;SDS011;37844;57.126;24.288;2022-12-11T15:27:00;29.67;;;18.02;;
51780;SDS011;37844;57.126;24.288;2022-12-11T15:34:30;21.00;;;12.23;;
51780;SDS011;37844;57.126;24.288;2022-12-11T15:36:57;21.83;;;13.32;;
51780;SDS011;37844;57.126;24.288;2022-12-11T15:39:23;36.05;;;28.13;;
51780;SDS011;37844;57.126;24.288;2022-12-11T15:41:48;46.58;;;33.97;;
51780;SDS011;37844;57.126;24.288;2022-12-11T15:44:19;22.27;;;13.85;;
51780;SDS011;37844;57.126;24.288;2022-12-11T15:46:47;32.63;;;22.52;;
51780;SDS011;37844;57.126;24.288;2022-12-11T15:49:13;31.13;;;19.60;;
51780;SDS011;37844;57.126;24.288;2022-12-11T15:51:39;41.97;;;24.52;;
51780;SDS011;37844;57.126;24.288;2022-12-11T15:54:04;46.78;;;22.45;;
51780;SDS011;37844;57.126;24.288;2022-12-11T15:56:30;45.22;;;35.17;;
51780;SDS011;37844;57.126;24.288;2022-12-11T15:58:56;45.13;;;29.25;;
51780;SDS011;37844;57.126;24.288;2022-12-11T16:01:26;45.30;;;32.83;;
51780;SDS011;37844;57.126;24.288;2022-12-11T16:03:52;32.47;;;23.85;;
51780;SDS011;37844;57.126;24.288;2022-12-11T16:06:17;22.48;;;14.00;;
51780;SDS011;37844;57.126;24.288;2022-12-11T16:08:43;20.60;;;15.85;;
51780;SDS011;37844;57.126;24.288;2022-12-11T16:11:08;24.17;;;15.13;;